Time;durP1;ratioP1;P1;durP2;ratioP2;P2;SDS_P1;SDS_P2;PMS_P1;PMS_P2;Temp;Humidity;BMP_temperature;BMP_pressure;BME280_temperature;BME280_humidity;BME280_pressure;Samples;Min_cycle;Max_cycle;Signal;HPM_P1;HPM_P2
2022/03/27 00:01:51;;;;;;;19.75;11.73;;;9.20;89.10;;;;;;5056452;27;88850;-71
2022/03/27 00:04:18;;;;;;;17.10;12.35;;;9.20;89.10;;;;;;5057437;27;89477;-72
2022/03/27 00:06:46;;;;;;;17.08;12.27;;;9.30;89.10;;;;;;5056120;27;91585;-72
2022/03/27 00:09:13;;;;;;;19.48;12.70;;;9.30;89.10;;;;;;5057510;27;88473;-72
2022/03/27 00:11:40;;;;;;;19.92;13.15;;;9.30;88.90;;;;;;5056123;27;91224;-72
2022/03/27 00:14:07;;;;;;;17.77;11.88;;;9.30;88.90;;;;;;5057230;27;89455;-71
2022/03/27 00:16:35;;;;;;;17.67;11.43;;;9.30;89.00;;;;;;5039456;27;88985;-72
2022/03/27 00:19:02;;;;;;;17.38;11.18;;;9.40;89.10;;;;;;5057490;27;88415;-72
2022/03/27 00:21:29;;;;;;;17.63;11.52;;;9.40;89.00;;;;;;5056514;27;88847;-72
2022/03/27 00:23:56;;;;;;;17.10;11.60;;;9.30;88.90;;;;;;5039484;27;89877;-72
2022/03/27 00:26:24;;;;;;;19.15;11.90;;;9.30;89.00;;;;;;5039316;27;88987;-71
2022/03/27 00:28:51;;;;;;;18.20;12.40;;;9.30;89.20;;;;;;5055552;27;91144;-72
2022/03/27 00:31:19;;;;;;;20.98;12.50;;;9.30;89.20;;;;;;5055018;27;99115;-72
2022/03/27 00:33:46;;;;;;;19.67;11.77;;;9.30;89.10;;;;;;5057477;27;89470;-71
2022/03/27 00:36:15;;;;;;;20.42;12.85;;;9.30;89.10;;;;;;5056943;27;88840;-71
2022/03/27 00:38:46;;;;;;;19.23;11.35;;;9.30;89.10;;;;;;5057304;27;88496;-72
2022/03/27 00:41:14;;;;;;;23.80;12.32;;;9.30;89.00;;;;;;5057017;27;89655;-72
2022/03/27 00:43:41;;;;;;;13.18;8.00;;;9.30;89.20;;;;;;5057092;27;89389;-71
2022/03/27 00:46:09;;;;;;;17.70;10.48;;;9.20;89.20;;;;;;5040105;27;88978;-72
2022/03/27 00:48:37;;;;;;;20.90;11.93;;;9.20;88.50;;;;;;5057216;27;88499;-72
2022/03/27 00:51:04;;;;;;;20.00;11.05;;;9.20;88.70;;;;;;5038950;27;88760;-71
2022/03/27 00:53:31;;;;;;;19.35;11.13;;;9.10;88.80;;;;;;5056680;27;94116;-72
2022/03/27 00:55:58;;;;;;;19.35;11.07;;;9.10;89.00;;;;;;5056810;27;89036;-71
2022/03/27 00:58:26;;;;;;;19.63;11.35;;;9.10;88.90;;;;;;5055330;27;91012;-72
2022/03/27 01:01:02;;;;;;;19.52;11.52;;;9.10;89.10;;;;;;5057172;27;88900;-72
2022/03/27 01:03:31;;;;;;;21.73;11.65;;;9.10;89.40;;;;;;5038451;27;92063;-72
2022/03/27 01:05:58;;;;;;;20.42;11.70;;;9.10;89.40;;;;;;5056722;27;88700;-72
2022/03/27 01:11:19;;;;;;;16.02;9.57;;;9.10;89.30;;;;;;5056879;27;88655;-71
2022/03/27 01:13:54;;;;;;;13.90;8.68;;;9.10;89.60;;;;;;5039168;27;96434;-72
2022/03/27 01:16:42;;;;;;;15.63;8.00;;;9.00;89.80;;;;;;5057517;27;88003;-72
2022/03/27 01:19:12;;;;;;;13.73;8.57;;;8.90;89.80;;;;;;5057593;27;88042;-72
2022/03/27 01:21:42;;;;;;;16.15;7.80;;;8.80;90.00;;;;;;5057091;27;89962;-72
2022/03/27 01:24:10;;;;;;;14.93;7.15;;;8.80;90.00;;;;;;5057454;27;89651;-71
2022/03/27 01:26:38;;;;;;;10.93;7.00;;;8.80;90.10;;;;;;5039148;27;88104;-71
2022/03/27 01:29:06;;;;;;;13.55;7.00;;;8.70;90.00;;;;;;5057197;27;88381;-71
2022/03/27 01:31:34;;;;;;;12.30;7.18;;;8.60;90.10;;;;;;5056547;27;90216;-69
2022/03/27 01:34:02;;;;;;;10.70;6.47;;;8.60;90.20;;;;;;5057228;27;89501;-70
2022/03/27 01:36:34;;;;;;;13.27;6.03;;;8.50;90.20;;;;;;5039203;27;88183;-69
2022/03/27 01:39:05;;;;;;;12.77;5.95;;;8.50;90.20;;;;;;5039318;27;87947;-69
2022/03/27 01:41:32;;;;;;;12.75;6.45;;;8.50;90.20;;;;;;5038989;27;88878;-70
2022/03/27 01:44:00;;;;;;;12.77;6.43;;;8.30;90.00;;;;;;5024754;27;91201;-69
2022/03/27 01:46:37;;;;;;;14.98;6.53;;;8.30;90.20;;;;;;5041892;27;88368;-70
2022/03/27 01:49:07;;;;;;;13.60;6.15;;;8.30;90.30;;;;;;5025928;27;88407;-69
2022/03/27 01:51:34;;;;;;;11.43;6.28;;;8.20;90.40;;;;;;5042042;27;88838;-69
2022/03/27 01:54:02;;;;;;;12.77;6.38;;;8.10;90.50;;;;;;5041959;27;99357;-69
2022/03/27 01:56:30;;;;;;;10.43;5.32;;;8.00;90.60;;;;;;5059899;27;88790;-69
2022/03/27 01:58:57;;;;;;;13.18;6.55;;;8.00;90.80;;;;;;5042083;27;88388;-69
2022/03/27 02:01:24;;;;;;;14.65;7.20;;;8.00;90.90;;;;;;5058613;27;91232;-69
2022/03/27 02:03:54;;;;;;;12.52;6.05;;;7.90;90.90;;;;;;5008859;27;89142;-69
2022/03/27 02:06:23;;;;;;;15.10;6.13;;;7.90;91.00;;;;;;5058913;27;88045;-70
2022/03/27 02:08:51;;;;;;;15.82;7.03;;;7.80;90.90;;;;;;5058646;27;91090;-69
2022/03/27 02:11:19;;;;;;;13.93;6.30;;;7.80;91.00;;;;;;5060292;27;88756;-70
2022/03/27 02:13:46;;;;;;;13.93;6.75;;;7.80;91.10;;;;;;5060430;27;87544;-69
2022/03/27 02:16:13;;;;;;;15.30;7.75;;;7.80;91.10;;;;;;5025175;27;89489;-69
2022/03/27 02:18:42;;;;;;;15.60;6.85;;;7.80;91.10;;;;;;5060007;27;88712;-69
2022/03/27 02:21:09;;;;;;;13.82;6.68;;;7.70;91.20;;;;;;5058881;27;89448;-69
2022/03/27 02:23:37;;;;;;;11.85;6.65;;;7.70;91.20;;;;;;5058178;27;92158;-69
2022/03/27 02:26:05;;;;;;;13.85;6.57;;;7.70;91.20;;;;;;5041978;27;88003;-69
2022/03/27 02:28:33;;;;;;;14.90;7.10;;;7.70;91.10;;;;;;5059559;27;88486;-70
2022/03/27 02:31:00;;;;;;;11.75;6.72;;;7.70;91.10;;;;;;5058491;27;91353;-69
2022/03/27 02:33:28;;;;;;;14.48;7.30;;;7.70;91.10;;;;;;5041334;27;91236;-70
2022/03/27 02:35:55;;;;;;;15.23;6.90;;;7.70;91.00;;;;;;5059875;27;87948;-69
2022/03/27 02:38:22;;;;;;;17.25;7.35;;;7.70;91.00;;;;;;5041860;27;90736;-69
2022/03/27 02:40:52;;;;;;;16.30;7.65;;;7.70;91.10;;;;;;5040981;27;96294;-69
2022/03/27 02:43:21;;;;;;;17.85;7.22;;;7.60;91.20;;;;;;5059947;27;88678;-69
2022/03/27 02:45:50;;;;;;;18.55;7.22;;;7.60;91.40;;;;;;5041262;27;88751;-69
2022/03/27 02:48:17;;;;;;;15.15;7.50;;;7.60;91.40;;;;;;5041636;27;88390;-69
2022/03/27 02:50:44;;;;;;;20.80;8.32;;;7.60;91.30;;;;;;5059324;27;88868;-69
2022/03/27 02:53:12;;;;;;;15.63;8.27;;;7.60;91.30;;;;;;5040573;27;104024;-69
2022/03/27 02:55:39;;;;;;;16.33;8.13;;;7.60;91.30;;;;;;5024646;27;89001;-69
2022/03/27 02:58:06;;;;;;;18.52;7.85;;;7.50;91.20;;;;;;5041176;27;88376;-69
2022/03/27 03:00:34;;;;;;;16.20;8.90;;;7.50;91.20;;;;;;5059153;27;88683;-69
2022/03/27 03:03:01;;;;;;;17.27;7.93;;;7.50;91.20;;;;;;5059938;27;88649;-69
2022/03/27 03:05:28;;;;;;;17.45;8.35;;;7.50;91.30;;;;;;5024155;27;89500;-69
2022/03/27 03:08:11;;;;;;;13.20;7.32;;;7.60;91.30;;;;;;5041085;27;88060;-69
2022/03/27 03:10:41;;;;;;;12.25;7.07;;;7.60;91.60;;;;;;5059026;27;90365;-69
2022/03/27 03:13:09;;;;;;;15.35;7.95;;;7.60;91.30;;;;;;5059428;27;89316;-69
2022/03/27 03:15:42;;;;;;;14.88;6.68;;;7.60;91.20;;;;;;5040821;27;87973;-69
2022/03/27 03:18:10;;;;;;;14.90;7.18;;;7.60;91.20;;;;;;5042215;27;88484;-69
2022/03/27 03:20:39;;;;;;;12.57;7.43;;;7.60;91.20;;;;;;5058374;27;96304;-69
2022/03/27 03:23:07;;;;;;;13.00;6.32;;;7.60;91.20;;;;;;5057750;27;91132;-69
2022/03/27 03:25:34;;;;;;;16.70;6.97;;;7.60;91.20;;;;;;5041008;27;88114;-70
2022/03/27 03:28:19;;;;;;;17.25;7.50;;;7.70;91.10;;;;;;5026638;27;91000;-69
2022/03/27 03:30:46;;;;;;;18.10;6.82;;;7.70;91.20;;;;;;5058695;27;88054;-69
2022/03/27 03:33:13;;;;;;;15.73;7.57;;;7.70;91.40;;;;;;5058982;27;88530;-70
2022/03/27 03:35:41;;;;;;;19.33;6.78;;;7.70;91.50;;;;;;5058568;27;88756;-69
2022/03/27 03:38:09;;;;;;;19.35;6.32;;;7.70;91.60;;;;;;5058819;27;88168;-69
2022/03/27 03:40:37;;;;;;;21.10;6.60;;;7.80;91.80;;;;;;5058895;27;88773;-69
2022/03/27 03:43:04;;;;;;;14.13;6.15;;;7.80;91.80;;;;;;5040100;27;98852;-69
2022/03/27 03:45:31;;;;;;;19.80;7.90;;;7.80;91.80;;;;;;5058955;27;87997;-69
2022/03/27 03:48:01;;;;;;;17.95;8.25;;;7.80;91.80;;;;;;5058645;27;88257;-70
2022/03/27 03:50:29;;;;;;;17.48;7.88;;;7.90;91.70;;;;;;5058410;27;88846;-69
2022/03/27 03:52:56;;;;;;;20.63;7.70;;;7.90;91.60;;;;;;5041001;27;88538;-69
2022/03/27 03:55:23;;;;;;;17.35;8.20;;;7.90;91.60;;;;;;5058707;27;88013;-69
2022/03/27 03:57:49;;;;;;;16.50;7.65;;;7.90;91.60;;;;;;5058475;27;88436;-69
2022/03/27 04:00:17;;;;;;;18.92;8.30;;;7.90;91.50;;;;;;5040078;27;89610;-69
2022/03/27 04:02:44;;;;;;;13.90;8.43;;;8.00;91.50;;;;;;5019693;28;90457;-70
2022/03/27 04:05:11;;;;;;;18.65;8.60;;;8.00;91.50;;;;;;5037182;28;88091;-69
2022/03/27 04:07:38;;;;;;;20.50;8.98;;;8.00;91.40;;;;;;5048419;27;88028;-69
2022/03/27 04:10:05;;;;;;;21.58;9.20;;;8.00;91.50;;;;;;5057400;27;101089;-70
2022/03/27 04:12:32;;;;;;;22.80;9.73;;;8.10;91.50;;;;;;5040308;27;88665;-70
2022/03/27 04:14:59;;;;;;;22.02;10.25;;;8.10;91.40;;;;;;5058186;27;87992;-70
2022/03/27 04:17:26;;;;;;;21.00;9.88;;;8.10;91.40;;;;;;5056183;27;89680;-70
2022/03/27 04:19:53;;;;;;;20.88;10.75;;;8.10;91.40;;;;;;5006013;27;91284;-70
2022/03/27 04:22:20;;;;;;;22.70;8.68;;;8.20;91.30;;;;;;5052597;27;89070;-69
2022/03/27 04:24:47;;;;;;;19.50;8.70;;;8.20;91.20;;;;;;5037240;27;88851;-70
2022/03/27 04:27:14;;;;;;;21.60;7.07;;;8.20;91.10;;;;;;5038059;27;88361;-70
2022/03/27 04:29:41;;;;;;;16.83;7.05;;;8.20;91.20;;;;;;5037734;27;88840;-69
2022/03/27 04:32:08;;;;;;;21.27;8.50;;;8.20;91.20;;;;;;5019420;28;94091;-70
2022/03/27 04:34:35;;;;;;;21.83;9.23;;;8.20;91.40;;;;;;5053363;27;89299;-69
2022/03/27 04:37:04;;;;;;;19.17;7.47;;;8.20;91.30;;;;;;5037168;27;99784;-70
2022/03/27 04:39:31;;;;;;;20.42;8.75;;;8.20;91.20;;;;;;5037729;27;88789;-70
2022/03/27 04:41:58;;;;;;;16.85;8.27;;;8.20;91.20;;;;;;5036302;28;91176;-70
2022/03/27 04:44:25;;;;;;;18.45;7.88;;;8.20;91.30;;;;;;5053311;27;87991;-70
2022/03/27 04:46:52;;;;;;;23.13;7.80;;;8.20;91.20;;;;;;5036083;28;90990;-70
2022/03/27 04:49:19;;;;;;;22.02;7.03;;;8.20;91.20;;;;;;5037131;28;89464;-70
2022/03/27 04:51:46;;;;;;;18.75;6.55;;;8.20;91.10;;;;;;5037439;27;89346;-69
2022/03/27 04:54:13;;;;;;;26.77;8.48;;;8.20;91.00;;;;;;5036151;28;88127;-70
2022/03/27 04:56:40;;;;;;;28.27;8.55;;;8.20;91.00;;;;;;5037624;27;88322;-69
2022/03/27 04:59:06;;;;;;;19.00;7.18;;;8.20;90.90;;;;;;5036210;28;88725;-70
2022/03/27 05:01:33;;;;;;;25.08;7.93;;;8.20;90.90;;;;;;5052990;27;91226;-70
2022/03/27 05:04:01;;;;;;;27.80;8.70;;;8.20;90.80;;;;;;5052892;27;88115;-70
2022/03/27 05:06:29;;;;;;;24.80;8.80;;;8.10;90.80;;;;;;5037642;27;87785;-70
2022/03/27 05:08:59;;;;;;;24.13;9.13;;;8.10;90.90;;;;;;5052536;27;91569;-70
2022/03/27 05:11:28;;;;;;;27.75;8.63;;;8.10;90.90;;;;;;5052965;27;91209;-70
2022/03/27 05:13:55;;;;;;;21.92;8.70;;;8.10;90.80;;;;;;5036905;28;88753;-70
2022/03/27 05:16:23;;;;;;;29.08;8.52;;;8.10;90.90;;;;;;5052915;27;88328;-70
2022/03/27 05:18:50;;;;;;;31.05;10.88;;;8.10;91.10;;;;;;5055183;27;91647;-69
2022/03/27 05:21:17;;;;;;;39.28;12.23;;;8.10;91.10;;;;;;5038285;28;89846;-69
2022/03/27 05:23:44;;;;;;;37.28;12.00;;;8.10;90.90;;;;;;5055789;27;88837;-70
2022/03/27 05:26:11;;;;;;;40.28;13.25;;;8.10;90.80;;;;;;5039652;27;88521;-69
2022/03/27 05:28:38;;;;;;;34.38;12.00;;;8.00;90.70;;;;;;5038387;28;91347;-70
2022/03/27 05:31:08;;;;;;;36.50;11.80;;;8.00;90.80;;;;;;5004738;28;92267;-70
2022/03/27 05:33:39;;;;;;;31.38;11.82;;;8.00;90.80;;;;;;5039674;27;88968;-69
2022/03/27 05:36:08;;;;;;;41.55;13.07;;;8.00;90.80;;;;;;5039565;27;88483;-70
2022/03/27 05:38:37;;;;;;;43.65;11.75;;;8.00;90.80;;;;;;5054489;27;105615;-70
2022/03/27 05:41:09;;;;;;;41.15;11.93;;;8.00;90.90;;;;;;5039552;27;89176;-70
2022/03/27 05:43:36;;;;;;;39.75;11.60;;;8.00;90.90;;;;;;5038341;28;91493;-70
2022/03/27 05:46:03;;;;;;;35.95;11.85;;;8.10;90.90;;;;;;5055069;27;88500;-70
2022/03/27 05:48:34;;;;;;;35.88;10.27;;;8.10;90.80;;;;;;5039803;28;89007;-70
2022/03/27 05:51:01;;;;;;;38.03;11.25;;;8.10;90.80;;;;;;5039321;27;89392;-70
2022/03/27 05:53:28;;;;;;;33.88;9.25;;;8.10;90.70;;;;;;5054960;27;92384;-69
2022/03/27 05:55:57;;;;;;;38.10;10.35;;;8.20;90.70;;;;;;5039364;28;88367;-69
2022/03/27 05:58:24;;;;;;;32.30;9.55;;;8.20;90.70;;;;;;5039215;27;88563;-70
2022/03/27 06:00:54;;;;;;;38.20;10.80;;;8.20;90.70;;;;;;5040301;27;88741;-70
2022/03/27 06:03:21;;;;;;;36.08;10.10;;;8.30;90.50;;;;;;5039195;27;88799;-69
2022/03/27 06:05:48;;;;;;;30.52;10.18;;;8.30;90.40;;;;;;5039380;28;88425;-69
2022/03/27 06:08:15;;;;;;;35.55;11.25;;;8.40;90.50;;;;;;5037589;27;96127;-70
2022/03/27 06:10:42;;;;;;;40.70;13.23;;;8.40;90.40;;;;;;5039228;28;89578;-70
2022/03/27 06:13:10;;;;;;;35.58;12.23;;;8.50;90.40;;;;;;5037763;28;88933;-69
2022/03/27 06:15:37;;;;;;;37.47;10.98;;;8.50;90.20;;;;;;5054701;27;88603;-70
2022/03/27 06:18:09;;;;;;;34.38;13.77;;;8.50;90.00;;;;;;5054336;27;91528;-69
2022/03/27 06:20:37;;;;;;;37.88;13.18;;;8.60;90.20;;;;;;5039657;27;89522;-70
2022/03/27 06:23:06;;;;;;;32.80;12.10;;;8.80;90.00;;;;;;5057990;27;89012;-70
2022/03/27 06:25:34;;;;;;;38.42;13.55;;;8.80;89.20;;;;;;5041315;27;88495;-70
2022/03/27 06:28:01;;;;;;;34.40;10.85;;;8.90;88.90;;;;;;5040153;27;90805;-69
2022/03/27 06:30:30;;;;;;;29.15;11.25;;;8.80;89.30;;;;;;5057528;27;90719;-70
2022/03/27 06:32:59;;;;;;;34.00;10.25;;;8.70;88.40;;;;;;5057688;27;91338;-69
2022/03/27 06:35:26;;;;;;;38.67;12.00;;;8.70;88.60;;;;;;5023753;27;91076;-70
2022/03/27 06:37:53;;;;;;;27.25;10.60;;;8.80;88.80;;;;;;5057910;27;88916;-69
2022/03/27 06:40:20;;;;;;;30.38;9.23;;;8.80;88.80;;;;;;5057539;27;88513;-70
2022/03/27 06:42:48;;;;;;;40.70;9.93;;;8.80;88.60;;;;;;5059681;27;87961;-69
2022/03/27 06:45:17;;;;;;;28.50;8.27;;;8.90;88.80;;;;;;5041481;27;90999;-69
2022/03/27 06:47:46;;;;;;;27.70;6.95;;;8.90;89.00;;;;;;5059702;27;88024;-70
2022/03/27 06:50:14;;;;;;;32.90;7.95;;;8.90;88.30;;;;;;5058105;27;88586;-69
2022/03/27 06:52:42;;;;;;;27.33;7.70;;;8.90;88.20;;;;;;5059334;27;89480;-70
2022/03/27 06:55:10;;;;;;;31.90;7.55;;;9.00;88.00;;;;;;5059455;27;88382;-70
2022/03/27 06:57:38;;;;;;;36.00;7.57;;;9.10;87.80;;;;;;5041261;27;89984;-69
2022/03/27 07:03:02;;;;;;;24.95;6.13;;;9.20;87.20;;;;;;5059753;27;88016;-70
2022/03/27 07:05:39;;;;;;;33.55;6.43;;;9.20;87.30;;;;;;5057733;27;90479;-69
2022/03/27 07:08:09;;;;;;;31.50;6.47;;;9.40;86.80;;;;;;5059558;27;89594;-69
2022/03/27 07:10:37;;;;;;;35.13;7.38;;;9.40;86.40;;;;;;5059557;27;88690;-69
2022/03/27 07:13:08;;;;;;;26.45;5.93;;;9.50;86.60;;;;;;5058904;27;100020;-70
2022/03/27 07:15:35;;;;;;;32.40;6.65;;;9.60;85.80;;;;;;5024321;27;91314;-69
2022/03/27 07:18:03;;;;;;;33.38;6.15;;;9.50;85.40;;;;;;5058866;27;89582;-70
2022/03/27 07:20:32;;;;;;;34.30;6.93;;;9.60;85.50;;;;;;5040460;27;90465;-70
2022/03/27 07:23:05;;;;;;;28.58;6.68;;;9.70;85.90;;;;;;5024088;27;87992;-69
2022/03/27 07:25:35;;;;;;;30.80;6.72;;;9.80;85.20;;;;;;5041109;27;88418;-70
2022/03/27 07:28:03;;;;;;;33.05;7.18;;;9.80;84.80;;;;;;5057823;27;88684;-70
2022/03/27 07:30:31;;;;;;;37.22;7.85;;;9.90;84.80;;;;;;5023514;27;91239;-70
2022/03/27 07:32:58;;;;;;;32.20;6.25;;;9.90;84.50;;;;;;5059025;27;87953;-69
2022/03/27 07:35:26;;;;;;;25.95;6.35;;;9.90;84.20;;;;;;5059217;27;88485;-69
2022/03/27 07:37:54;;;;;;;31.33;7.15;;;9.90;84.00;;;;;;5040311;27;91491;-71
2022/03/27 07:40:21;;;;;;;30.70;7.13;;;10.00;84.10;;;;;;5039028;27;94233;-70
2022/03/27 07:42:50;;;;;;;33.10;7.65;;;10.00;84.00;;;;;;5040004;27;95919;-70
2022/03/27 07:45:19;;;;;;;27.38;7.45;;;10.00;83.50;;;;;;5057139;27;90957;-70
2022/03/27 07:47:47;;;;;;;31.65;7.55;;;10.10;83.90;;;;;;5058550;27;88841;-70
2022/03/27 07:50:16;;;;;;;29.67;7.40;;;10.10;83.90;;;;;;5040592;27;88801;-70
2022/03/27 07:52:44;;;;;;;28.42;7.78;;;10.30;83.60;;;;;;5058662;27;88043;-70
2022/03/27 07:55:14;;;;;;;34.25;8.60;;;10.40;83.40;;;;;;5040442;27;88316;-70
2022/03/27 07:57:42;;;;;;;29.77;8.05;;;10.40;82.70;;;;;;5058269;27;88822;-70
2022/03/27 08:00:11;;;;;;;27.45;7.45;;;10.50;82.60;;;;;;5040849;27;87509;-69
2022/03/27 08:02:44;;;;;;;28.58;7.97;;;10.60;81.70;;;;;;5041218;27;88003;-70
2022/03/27 08:05:11;;;;;;;37.13;7.88;;;10.60;81.50;;;;;;5056989;27;88365;-70
2022/03/27 08:07:38;;;;;;;32.40;7.32;;;10.70;81.20;;;;;;5039610;27;89688;-69
2022/03/27 08:10:06;;;;;;;30.75;8.25;;;10.70;81.00;;;;;;5039465;27;99525;-69
2022/03/27 08:12:35;;;;;;;29.35;7.28;;;10.70;81.00;;;;;;5056457;27;89508;-70
2022/03/27 08:15:04;;;;;;;29.27;7.82;;;10.80;80.30;;;;;;5058481;27;88277;-70
2022/03/27 08:17:32;;;;;;;26.33;6.30;;;10.90;80.10;;;;;;5039859;27;88704;-70
2022/03/27 08:19:59;;;;;;;27.55;7.32;;;10.90;79.90;;;;;;5057037;27;88404;-70
2022/03/27 08:22:26;;;;;;;27.73;6.95;;;11.00;80.80;;;;;;5056163;27;89155;-70
2022/03/27 08:24:53;;;;;;;24.95;6.97;;;11.10;79.90;;;;;;5040136;27;90891;-70
2022/03/27 08:27:20;;;;;;;23.73;9.10;;;11.30;79.60;;;;;;5040085;27;88662;-70
2022/03/27 08:29:48;;;;;;;29.65;6.90;;;11.30;78.10;;;;;;5023216;27;91254;-70
2022/03/27 08:32:16;;;;;;;29.55;7.53;;;11.40;78.20;;;;;;5056395;27;89505;-70
2022/03/27 08:34:46;;;;;;;32.15;6.93;;;11.40;77.60;;;;;;5039260;27;104350;-70
2022/03/27 08:37:15;;;;;;;26.05;6.90;;;11.60;78.20;;;;;;5039709;27;91380;-70
2022/03/27 08:39:45;;;;;;;28.92;6.45;;;11.70;77.50;;;;;;5057702;27;88575;-70
2022/03/27 08:42:19;;;;;;;28.83;6.95;;;12.00;77.20;;;;;;5057834;27;88003;-70
2022/03/27 08:44:47;;;;;;;33.78;7.63;;;12.20;76.70;;;;;;5040205;27;88391;-70
2022/03/27 08:47:34;;;;;;;33.17;7.65;;;12.20;76.30;;;;;;5058121;27;88860;-70
2022/03/27 08:50:25;;;;;;;29.23;7.80;;;12.40;75.80;;;;;;5039799;27;88741;-70
2022/03/27 08:53:03;;;;;;;35.10;7.45;;;12.50;75.40;;;;;;5060817;27;88117;-70
2022/03/27 08:55:57;;;;;;;35.67;8.38;;;12.40;75.10;;;;;;5061397;27;88401;-70
2022/03/27 08:58:38;;;;;;;27.35;6.07;;;12.50;75.30;;;;;;5061103;27;89445;-70
2022/03/27 09:01:05;;;;;;;21.98;6.45;;;12.50;74.60;;;;;;5061603;27;89502;-70
2022/03/27 09:03:33;;;;;;;28.10;8.13;;;12.40;74.30;;;;;;5061249;27;88106;-70
2022/03/27 09:06:01;;;;;;;31.15;6.40;;;12.50;74.60;;;;;;5061384;27;88107;-70
2022/03/27 09:08:33;;;;;;;29.92;7.47;;;12.30;74.70;;;;;;5026283;27;91375;-70
2022/03/27 09:11:06;;;;;;;28.65;6.60;;;12.30;74.80;;;;;;5061212;27;88685;-70
2022/03/27 09:13:33;;;;;;;25.92;6.80;;;12.30;74.20;;;;;;5025926;27;88075;-69
2022/03/27 09:16:04;;;;;;;25.33;6.47;;;12.10;74.20;;;;;;5043443;27;88479;-70
2022/03/27 09:18:47;;;;;;;30.65;7.55;;;12.10;75.30;;;;;;5060957;27;88048;-70
2022/03/27 09:21:17;;;;;;;27.88;8.07;;;12.00;75.40;;;;;;5060121;27;88473;-70
2022/03/27 09:23:50;;;;;;;26.45;7.05;;;11.90;75.40;;;;;;5060573;27;89464;-70
2022/03/27 09:26:17;;;;;;;24.37;7.10;;;12.00;75.10;;;;;;5061291;27;88404;-70
2022/03/27 09:28:53;;;;;;;32.03;7.85;;;12.00;74.90;;;;;;5008601;27;105594;-70
2022/03/27 09:31:26;;;;;;;32.70;8.02;;;12.10;74.70;;;;;;5060692;27;88117;-70
2022/03/27 09:34:02;;;;;;;27.90;5.87;;;12.10;74.60;;;;;;5042204;27;89555;-70
2022/03/27 09:36:40;;;;;;;29.88;7.00;;;12.10;74.80;;;;;;5042992;27;88421;-70
2022/03/27 09:39:18;;;;;;;20.40;4.82;;;12.10;75.20;;;;;;5056932;27;94404;-70
2022/03/27 09:41:48;;;;;;;34.05;6.60;;;12.00;73.90;;;;;;5058583;27;93218;-70
2022/03/27 09:44:30;;;;;;;23.67;6.78;;;11.90;74.30;;;;;;5040418;27;92576;-69
2022/03/27 09:47:10;;;;;;;29.90;6.88;;;12.00;74.60;;;;;;5058363;27;92506;-69
2022/03/27 09:49:43;;;;;;;30.80;7.03;;;12.00;74.80;;;;;;5039163;27;95732;-70
2022/03/27 09:52:14;;;;;;;31.13;7.85;;;11.90;75.20;;;;;;5058106;27;97910;-69
2022/03/27 09:54:56;;;;;;;22.02;6.38;;;12.00;75.20;;;;;;5058280;27;92364;-69
2022/03/27 09:57:37;;;;;;;29.83;7.85;;;11.90;75.00;;;;;;5040437;27;92417;-70
2022/03/27 10:00:20;;;;;;;27.77;6.95;;;12.00;75.20;;;;;;5039936;27;92520;-70
2022/03/27 10:02:49;;;;;;;28.73;6.60;;;12.10;74.70;;;;;;5057214;27;93071;-70
2022/03/27 10:05:21;;;;;;;25.92;6.28;;;12.20;74.30;;;;;;5057955;27;92842;-69
2022/03/27 10:07:51;;;;;;;25.70;6.22;;;12.30;73.90;;;;;;5039897;27;91778;-70
2022/03/27 10:10:23;;;;;;;27.83;6.95;;;12.30;73.80;;;;;;5057931;27;93246;-70
2022/03/27 10:12:52;;;;;;;27.60;7.35;;;12.30;73.90;;;;;;5039216;27;95550;-70
2022/03/27 10:15:28;;;;;;;26.92;7.05;;;12.30;74.20;;;;;;5056652;27;95202;-70
2022/03/27 10:18:20;;;;;;;23.70;5.35;;;12.40;74.00;;;;;;5058123;27;92758;-70
2022/03/27 10:20:54;;;;;;;31.65;6.63;;;12.50;73.30;;;;;;5038902;27;95729;-70
2022/03/27 10:23:23;;;;;;;27.63;6.50;;;12.60;73.00;;;;;;5057992;27;93110;-69
2022/03/27 10:25:55;;;;;;;24.63;6.38;;;12.60;71.70;;;;;;5057532;27;92456;-70
2022/03/27 10:28:22;;;;;;;27.52;5.72;;;12.60;71.00;;;;;;5039534;27;92645;-70
2022/03/27 10:30:50;;;;;;;23.48;4.97;;;12.60;71.20;;;;;;5057431;27;93275;-70
2022/03/27 10:33:20;;;;;;;18.90;5.82;;;12.70;70.90;;;;;;5057892;27;93061;-69
2022/03/27 10:36:02;;;;;;;27.15;5.32;;;12.80;70.50;;;;;;5039074;27;92528;-70
2022/03/27 10:38:42;;;;;;;28.30;5.25;;;12.80;70.30;;;;;;5057712;27;92462;-70
2022/03/27 10:41:34;;;;;;;22.55;6.28;;;12.90;70.00;;;;;;5054660;27;98274;-70
2022/03/27 10:44:12;;;;;;;22.98;6.18;;;12.90;69.70;;;;;;5057249;27;95528;-70
2022/03/27 10:46:39;;;;;;;21.52;5.38;;;13.00;69.90;;;;;;5057623;27;92443;-70
2022/03/27 10:49:14;;;;;;;20.48;5.32;;;13.00;68.90;;;;;;5057405;27;92498;-70
2022/03/27 10:51:43;;;;;;;26.45;5.88;;;13.20;66.80;;;;;;5039365;27;93144;-69
2022/03/27 10:54:14;;;;;;;22.83;5.80;;;13.20;66.20;;;;;;5057186;27;92474;-70
2022/03/27 10:56:51;;;;;;;23.73;4.78;;;13.30;66.50;;;;;;5057701;27;92360;-70
2022/03/27 10:59:25;;;;;;;24.58;4.80;;;13.40;64.50;;;;;;5039346;27;92193;-70
2022/03/27 11:01:58;;;;;;;22.83;5.22;;;13.30;62.00;;;;;;5038810;27;93172;-70
2022/03/27 11:04:34;;;;;;;18.73;4.60;;;13.40;63.50;;;;;;5022080;27;94447;-70
2022/03/27 11:07:28;;;;;;;24.48;4.65;;;13.50;63.20;;;;;;5054201;27;94802;-70
2022/03/27 11:09:55;;;;;;;15.40;4.43;;;13.50;61.60;;;;;;5052604;27;92549;-70
2022/03/27 11:12:24;;;;;;;20.88;5.68;;;13.50;62.50;;;;;;5056910;27;93685;-70
2022/03/27 11:15:04;;;;;;;21.05;4.93;;;13.60;63.20;;;;;;5055418;27;93065;-70
2022/03/27 11:17:44;;;;;;;18.98;4.88;;;13.70;63.10;;;;;;5056030;27;92449;-70
2022/03/27 11:20:20;;;;;;;16.52;4.32;;;13.70;62.20;;;;;;5038708;27;92466;-70
2022/03/27 11:22:52;;;;;;;17.65;4.50;;;13.90;60.20;;;;;;5054579;27;95770;-69
2022/03/27 11:25:38;;;;;;;17.75;4.72;;;13.90;61.20;;;;;;5038620;27;95523;-70
2022/03/27 11:28:13;;;;;;;17.98;5.20;;;14.00;60.30;;;;;;5056801;27;92458;-70
2022/03/27 11:31:03;;;;;;;17.45;5.03;;;14.10;61.60;;;;;;5038508;27;92542;-70
2022/03/27 11:33:31;;;;;;;13.55;3.97;;;14.10;61.80;;;;;;5054030;27;95831;-70
2022/03/27 11:36:01;;;;;;;17.30;5.00;;;14.10;59.00;;;;;;5056115;27;95607;-70
2022/03/27 11:38:30;;;;;;;13.85;5.03;;;14.20;56.70;;;;;;5056450;27;92368;-70
2022/03/27 11:41:27;;;;;;;19.17;5.05;;;14.10;58.70;;;;;;5056021;27;96288;-70
2022/03/27 11:43:55;;;;;;;15.85;4.53;;;14.20;60.10;;;;;;5056479;27;92488;-70
2022/03/27 11:46:28;;;;;;;19.52;5.50;;;14.20;60.40;;;;;;5038377;27;92818;-70
2022/03/27 11:49:00;;;;;;;17.00;4.50;;;14.30;60.50;;;;;;5037721;27;92593;-70
2022/03/27 11:51:28;;;;;;;15.13;4.72;;;14.40;59.50;;;;;;5057269;27;92260;-70
2022/03/27 11:53:57;;;;;;;13.68;3.97;;;14.30;58.10;;;;;;5037742;27;95693;-70
2022/03/27 11:56:24;;;;;;;20.55;5.10;;;14.30;58.30;;;;;;5038147;27;93365;-70
2022/03/27 11:59:03;;;;;;;20.48;5.20;;;14.30;58.90;;;;;;5020156;27;95316;-70
2022/03/27 12:01:31;;;;;;;16.95;4.68;;;14.40;59.00;;;;;;5055122;27;92496;-70
2022/03/27 12:03:59;;;;;;;13.95;4.68;;;14.50;58.70;;;;;;5054484;27;95882;-70
2022/03/27 12:06:28;;;;;;;21.25;4.90;;;14.50;57.80;;;;;;5037947;27;92748;-70
2022/03/27 12:08:56;;;;;;;15.10;4.50;;;14.70;57.10;;;;;;5021332;27;92898;-70
2022/03/27 12:11:26;;;;;;;20.27;5.35;;;14.70;58.00;;;;;;5021013;27;92477;-70
2022/03/27 12:13:53;;;;;;;19.17;6.30;;;14.80;59.00;;;;;;5054405;27;95310;-70
2022/03/27 12:16:23;;;;;;;15.02;5.28;;;14.90;59.50;;;;;;5021495;27;94620;-69
2022/03/27 12:18:50;;;;;;;14.52;3.78;;;14.90;57.90;;;;;;5037671;27;92516;-70
2022/03/27 12:21:20;;;;;;;20.60;5.05;;;14.90;55.70;;;;;;5055278;27;92571;-70
2022/03/27 12:23:55;;;;;;;16.15;4.25;;;15.00;56.40;;;;;;5052918;27;98407;-70
2022/03/27 12:31:55;;;;;;;17.17;5.07;;;15.10;56.50;;;;;;5056101;27;92328;-70
2022/03/27 12:34:24;;;;;;;15.38;4.85;;;15.20;56.70;;;;;;5037091;27;95902;-70
2022/03/27 12:37:37;;;;;;;13.63;4.45;;;15.20;55.40;;;;;;5055669;27;93444;-70
2022/03/27 12:40:06;;;;;;;14.57;4.20;;;15.30;51.80;;;;;;5052164;27;92426;-70
2022/03/27 12:42:40;;;;;;;14.05;4.22;;;15.30;50.60;;;;;;5037687;27;91695;-73
2022/03/27 12:45:11;;;;;;;16.40;5.53;;;15.40;51.60;;;;;;5036816;27;94834;-72
2022/03/27 12:47:42;;;;;;;16.58;4.25;;;15.40;52.70;;;;;;5055647;27;93080;-72
2022/03/27 12:50:20;;;;;;;19.20;5.07;;;15.40;54.30;;;;;;5054399;27;94756;-72
2022/03/27 12:52:52;;;;;;;14.88;5.47;;;15.50;54.10;;;;;;5055576;27;92347;-72
2022/03/27 12:55:19;;;;;;;21.17;5.85;;;15.50;56.00;;;;;;5055313;27;93098;-72
2022/03/27 12:57:55;;;;;;;16.88;4.80;;;15.50;56.40;;;;;;5055568;27;93056;-72
2022/03/27 13:00:25;;;;;;;16.42;5.05;;;15.60;54.30;;;;;;5037021;27;92455;-72
2022/03/27 13:03:30;;;;;;;14.18;4.97;;;15.60;54.20;;;;;;5055747;27;92390;-72
2022/03/27 13:05:57;;;;;;;15.45;4.80;;;15.60;54.60;;;;;;4953255;28;94235;-72
2022/03/27 13:08:30;;;;;;;19.30;5.00;;;15.60;54.50;;;;;;4953121;28;93053;-72